• Join FlightAware (Why Join?)
  • Login
  • US Flag 
06:41PM EST


 

Airport Tracker/Info


-or-


 

Live Flight TrackerFlight Track Log ✈ UAL341 ✈ 28-Apr-2013 ✈ KORD - KIAH

Flight Track Log - Related Links

Times and Time Zones

All times are in EDT time to prevent confusion due to time zone crossing. See the UAL341 flight status page for this flight to view local times or setup timezone preferences in your user account.

Time Position Orientation Groundspeed Altitude Reporting Facility
EDT Latitude Longitude Course Direction KTS MPH feet Rate Location/Type
06:37AM 41.8833 -87.9000 217° Southwest 183 211 4,100  Level Chicago TRACON
06:38AM 41.8700 -87.9086 206° Southwest 180 207 4,500 2,400 Climbing Chicago Center
06:39AM 41.6968 -88.1171 191° South  Level Estimated
06:39AM 41.7992 -87.9256 190° South 254 292 7,100  Level Chicago Center
06:40AM 41.6018 -88.1869 189° South  Level Estimated
06:40AM 41.7231 -87.9489 193° South 280 322 10,400  Level Chicago Center
06:41AM 41.5126 -88.1047 145° Southeast  Level FlightAware Approximate
06:41AM 41.6422 -88.0033 207° Southwest 325 374 11,800  Level Chicago Center
06:42AM 41.4179 -88.1752 197° South  Level Estimated
06:42AM 41.5500 -88.0656 207° Southwest 371 427 14,200  Level Chicago Center
06:43AM 41.3233 -88.2455 217° Southwest  Level Estimated
06:43AM 41.4564 -88.1275 206° Southwest 386 444 16,600  Level Chicago Center
06:44AM 41.3606 -88.1906 206° Southwest 400 460 18,800 1,980 Climbing Chicago Center
06:45AM 41.2572 -88.2594 207° Southwest 418 481 20,600 1,800 Climbing Chicago Center
06:46AM 41.1522 -88.3294 207° Southwest 425 489 22,500 1,740 Climbing Chicago Center
06:47AM 41.0442 -88.3997 206° Southwest 432 497 24,100 1,380 Climbing Chicago Center
06:48AM 40.9322 -88.4719 206° Southwest 445 512 25,300 1,140 Climbing Chicago Center
06:49AM 40.8186 -88.5472 207° Southwest 457 526 26,500 1,500 Climbing Chicago Center
06:50AM 40.6786 -88.6375 206° Southwest 468 539 28,300 1,440 Climbing Chicago Center
06:51AM 40.5606 -88.7131 206° Southwest 472 543 29,500 1,140 Climbing Chicago Center
06:52AM 40.4517 -88.7822 206° Southwest 478 550 30,700 1,380 Climbing Chicago Center
06:53AM 40.3333 -88.8578 206° Southwest 475 547 32,300 1,440 Climbing Chicago Center
06:54AM 40.2147 -88.9336 206° Southwest 473 544 33,600 1,320 Climbing Chicago Center
06:55AM 40.1200 -88.9942 206° Southwest 466 536 34,800 1,080 Climbing Kansas City Center
06:56AM 40.0036 -89.0683 206° Southwest 463 533 35,700 1,020 Climbing Kansas City Center
06:57AM 39.8858 -89.1422 206° Southwest 467 537 36,900 1,140 Climbing Kansas City Center
06:58AM 39.7747 -89.2139 206° Southwest 451 519 38,000 540 Climbing Kansas City Center
06:59AM 39.6692 -89.2786 205° Southwest 446 513 38,000  Level Kansas City Center
07:00AM 39.5575 -89.3478 206° Southwest 446 513 38,000  Level Kansas City Center
07:01AM 39.4461 -89.4189 206° Southwest 445 512 38,000  Level Kansas City Center
07:02AM 39.3333 -89.4881 205° Southwest 448 516 38,000  Level Kansas City Center
07:03AM 39.2214 -89.5572 206° Southwest 446 513 38,000  Level Kansas City Center
07:04AM 39.0903 -89.6397 206° Southwest 448 516 38,000  Level Kansas City Center
07:05AM 38.9775 -89.7089 205° Southwest 449 517 38,000  Level Kansas City Center
07:06AM 38.8831 -89.7661 205° Southwest 448 516 38,000  Level Kansas City Center
07:07AM 38.7692 -89.8350 205° Southwest 449 517 38,000  Level Kansas City Center
07:08AM 38.6564 -89.9031 205° Southwest 446 513 38,000  Level Kansas City Center
07:09AM 38.5433 -89.9700 205° Southwest 443 510 38,000  Level Kansas City Center
07:10AM 38.4300 -90.0386 205° Southwest 446 513 38,000  Level Kansas City Center
07:11AM 38.3008 -90.1178 206° Southwest 443 510 38,000  Level Kansas City Center
07:12AM 38.1889 -90.1839 205° Southwest 442 509 38,000  Level Kansas City Center
07:13AM 38.0778 -90.2503 205° Southwest 443 510 38,000  Level Kansas City Center
07:14AM 37.9672 -90.3153 205° Southwest 439 505 38,000  Level Kansas City Center
07:15AM 37.8728 -90.3708 205° Southwest 435 501 38,000  Level Kansas City Center
07:16AM 37.7614 -90.4372 205° Southwest 442 509 38,000  Level Kansas City Center
07:17AM 37.6511 -90.5031 205° Southwest 439 505 38,000  Level Kansas City Center
07:18AM 37.5428 -90.5678 205° Southwest 436 502 38,000  Level Kansas City Center
07:19AM 37.4311 -90.6325 205° Southwest 438 504 38,000  Level Kansas City Center
07:20AM 37.3008 -90.7114 206° Southwest 437 503 38,000  Level Kansas City Center
07:20AM 37.2522 -90.7400 205° Southwest 441 507 38,000  Level Memphis Center
07:21AM 37.1478 -90.7992 204° Southwest 438 504 38,000  Level Memphis Center
07:22AM 37.0350 -90.8611 204° Southwest 438 504 38,000  Level Memphis Center
07:23AM 36.9203 -90.9303 206° Southwest 444 511 38,000  Level Memphis Center
07:24AM 36.8136 -90.9944 206° Southwest 444 511 38,000  Level Memphis Center
07:25AM 36.7008 -91.0583 204° Southwest 444 511 38,000  Level Memphis Center
07:26AM 36.5900 -91.1194 204° Southwest 444 511 38,000  Level Memphis Center
07:27AM 36.4811 -91.1828 205° Southwest 444 511 38,000  Level Memphis Center
07:28AM 36.3703 -91.2461 205° Southwest 444 511 38,000  Level Memphis Center
07:29AM 36.2636 -91.3042 204° Southwest 444 511 38,000  Level Memphis Center
07:30AM 36.1525 -91.3672 205° Southwest 439 505 38,000  Level Memphis Center
07:31AM 36.0456 -91.4275 205° Southwest 439 505 38,000  Level Memphis Center
07:32AM 35.9514 -91.4828 205° Southwest 434 499 38,000  Level Memphis Center
07:33AM 35.8403 -91.5453 205° Southwest 427 491 38,000  Level Memphis Center
07:34AM 35.7311 -91.6025 203° Southwest 427 491 38,100  Climbing Memphis Center
07:35AM 35.6222 -91.6622 204° Southwest 427 491 38,000 -60 Descending Memphis Center
07:36AM 35.5047 -91.7267 204° Southwest 422 486 38,000  Level Memphis Center
07:37AM 35.3997 -91.7861 205° Southwest 422 486 38,000  Level Memphis Center
07:38AM 35.2906 -91.8453 204° Southwest 422 486 38,000  Level Memphis Center
07:39AM 35.1775 -91.8914 198° South 422 486 38,000  Level Memphis Center
07:40AM 35.0644 -91.9200 192° South 422 486 38,000  Level Memphis Center
07:41AM 34.9514 -91.9481 191° South 422 486 38,000  Level Memphis Center
07:42AM 34.8383 -91.9739 191° South 417 480 38,000  Level Memphis Center
07:43AM 34.7197 -91.9589 174° South 408 470 38,000  Level Memphis Center
07:44AM 34.5989 -91.9492 176° South 421 484 38,000  Level Memphis Center
07:45AM 34.4881 -91.9497 180° South 420 483 38,000  Level Memphis Center
07:46AM 34.3856 -91.9781 193° South 395 455 38,000  Level Memphis Center
07:47AM 34.2850 -92.0111 195° South 389 448 38,000  Level Memphis Center
07:49AM 34.1033 -92.0661 194° South 354 407 38,000  Level Fort Worth Center
07:50AM 34.0022 -92.0950 193° South 360 414 38,000  Level Fort Worth Center
07:51AM 33.8992 -92.1236 193° South 373 429 38,000  Level Fort Worth Center
07:52AM 33.7961 -92.1575 195° South 373 429 38,000  Level Fort Worth Center
07:53AM 33.6931 -92.1861 193° South 378 435 38,000  Level Fort Worth Center
07:54AM 33.5900 -92.2172 194° South 378 435 38,000  Level Fort Worth Center
07:55AM 33.4828 -92.2458 193° South 384 442 38,000  Level Fort Worth Center
07:56AM 33.3775 -92.2769 194° South 394 453 38,100  Climbing Fort Worth Center
07:57AM 33.2742 -92.3028 192° South 389 448 38,000 -60 Descending Fort Worth Center
07:58AM 33.1672 -92.3364 195° South 394 453 38,000  Level Fort Worth Center
07:59AM 33.0681 -92.3642 193° South 387 445 38,000  Level Fort Worth Center
08:00AM 32.9669 -92.3922 193° South 387 445 38,000  Level Fort Worth Center
08:01AM 32.8639 -92.4228 194° South 387 445 38,000  Level Fort Worth Center
08:03AM 32.6022 -92.4992 194° South 381 438 38,000  Level Houston Center
08:04AM 32.4981 -92.5317 195° South 385 443 38,000  Level Houston Center
08:05AM 32.3944 -92.5606 193° South 383 441 38,000  Level Houston Center
08:06AM 32.2911 -92.5906 194° South 382 440 38,000 -60 Level Houston Center
08:08AM 32.1881 -92.6186 193° South 381 438 37,900 -60 Descending Houston Center
08:09AM 32.0850 -92.6475 193° South 380 437 37,900  Level Houston Center
08:10AM 31.9839 -92.6822 196° South 378 435 38,000  Climbing Houston Center
08:11AM 31.9000 -92.7494 214° Southwest 363 418 38,000  Level Houston Center
08:12AM 31.8239 -92.8242 220° Southwest 358 412 38,000 -60 Level Houston Center
08:13AM 31.7478 -92.8969 219° Southwest 356 410 37,900 -60 Descending Houston Center
08:14AM 31.6714 -92.9689 219° Southwest 357 411 37,900  Level Houston Center
08:15AM 31.5950 -93.0436 220° Southwest 359 413 38,000  Climbing Houston Center
08:16AM 31.5036 -93.1297 219° Southwest 355 409 38,000  Level Houston Center
08:17AM 31.4267 -93.2036 219° Southwest 358 412 38,000  Level Houston Center
08:18AM 31.3492 -93.2772 219° Southwest 358 412 38,000  Level Houston Center
08:19AM 31.2811 -93.3431 220° Southwest 360 414 38,000  Level Houston Center
08:20AM 31.1936 -93.4258 219° Southwest 363 418 38,000 -420 Level Houston Center
08:21AM 31.1156 -93.4994 219° Southwest 361 415 37,200 -900 Descending Houston Center
08:22AM 31.0375 -93.5739 219° Southwest 363 418 36,200 -1,680 Descending Houston Center
08:23AM 30.9564 -93.6508 219° Southwest 373 429 33,900 -2,760 Descending Houston Center
08:24AM 30.8717 -93.7308 219° Southwest 385 443 30,600 -2,880 Descending Houston Center
08:25AM 30.7858 -93.8131 219° Southwest 398 458 28,200 -2,400 Descending Houston Center
08:26AM 30.7008 -93.8933 219° Southwest 399 459 25,800 -2,640 Descending Houston Center
08:27AM 30.5992 -93.9889 219° Southwest 394 453 22,800 -2,700 Descending Houston Center
08:27AM 30.5728 -94.0117 217° Southwest 391 450 22,200 -2,340 Descending Houston Center
08:28AM 30.5181 -94.0642 220° Southwest 380 437 20,500 -2,460 Descending Houston Center
08:28AM 30.4825 -94.0967 218° Southwest 374 430 19,500 -2,280 Descending Houston Center
08:29AM 30.4386 -94.1386 219° Southwest 373 429 18,200 -2,100 Descending Houston Center
08:29AM 30.4136 -94.1617 218° Southwest 362 417 17,600 -1,920 Descending Houston Center
08:30AM 30.3619 -94.2100 219° Southwest 362 417 16,300 -2,100 Descending Houston Center
08:30AM 30.3328 -94.2378 219° Southwest 352 405 15,500 -1,980 Descending Houston Center
08:31AM 30.2867 -94.2806 219° Southwest 353 406 14,200 -1,620 Descending Houston Center
08:31AM 30.2539 -94.3111 219° Southwest 346 398 13,800 -960 Descending Houston Center
08:32AM 30.2161 -94.3492 221° Southwest 338 389 13,300 -1,260 Descending Houston Center
08:32AM 30.1892 -94.3778 223° Southwest 302 348 12,600 -1,620 Descending Houston Center
08:33AM 30.1533 -94.4131 220° Southwest 308 354 11,700 -1,500 Descending Houston Center
08:33AM 30.1153 -94.4383 210° Southwest 303 349 11,000 -1,500 Descending Houston Center
08:34AM 30.0789 -94.4558 203° Southwest 302 348 10,200 -1,620 Descending Houston Center
08:34AM 30.0450 -94.4933 224° Southwest 295 339 9,400 -1,680 Descending Houston Center
08:35AM 30.0242 -94.5264 234° Southwest 292 336 8,500 -1,920 Descending Houston Center
08:35AM 29.9983 -94.5742 238° Southwest 292 336 7,500 -1,800 Descending Houston Center
08:36AM 29.9825 -94.6061 240° Southwest 290 334 6,700 -1,380 Descending Houston Center
08:36AM 29.9769 -94.6589 263° West 291 335 6,100 -720 Descending Houston Center
08:37AM 29.9772 -94.6969 270° West 284 327 6,000 -300 Descending Houston Center
08:37AM 29.9756 -94.7533 268° West 291 335 5,800 -1,020 Descending Houston Center
08:38AM 29.9767 -94.8075 271° West 287 330 5,000 -1,260 Descending Houston Center
08:38AM 29.9767 -94.8519 270° West 268 308 4,400 -900 Descending Houston Center
08:39AM 29.9783 -94.8914 273° West 278 320 4,100 -720 Descending Houston Center
08:39AM 29.9758 -94.9317 266° West 221 254 3,700 -900 Descending Houston Center
08:40AM 29.9781 -94.9597 275° West 244 281 3,200 -720 Descending Houston Center
08:41AM 29.9778 -94.9967 270° West 202 232 3,000 -240 Descending Houston Center
08:41AM 29.9778 -95.0250 270° West 216 249 3,000  Level Houston Center
08:42AM 29.9775 -95.0619 270° West 205 236 3,000  Level Houston Center
08:42AM 29.9781 -95.0906 271° West 207 238 3,000  Level Houston Center
08:43AM 29.9775 -95.1294 269° West 190 219 3,000 -300 Level Houston Center
08:43AM 29.9789 -95.1522 274° West 198 228 2,700 -600 Descending Houston Center